Time;durP1;ratioP1;P1;durP2;ratioP2;P2;SDS_P1;SDS_P2;PMS_P1;PMS_P2;Temp;Humidity;BMP_temperature;BMP_pressure;BME280_temperature;BME280_humidity;BME280_pressure;Samples;Min_cycle;Max_cycle;Signal;HPM_P1;HPM_P2
2023/09/22 00:02:03;;;;;;;;;;;;;;;14.43;100.00;95299.66;5088791;28;20167;-72
2023/09/22 00:04:29;;;;;;;;;;;;;;;14.45;100.00;95295.69;5106736;28;19997;-72
2023/09/22 00:06:55;;;;;;;;;;;;;;;14.48;100.00;95297.00;5106656;28;19953;-70
2023/09/22 00:09:21;;;;;;;;;;;;;;;14.48;100.00;95281.16;5106395;28;19958;-70
2023/09/22 00:11:47;;;;;;;;;;;;;;;14.50;100.00;95279.81;5106034;28;19976;-72
2023/09/22 00:14:13;;;;;;;;;;;;;;;14.47;100.00;95277.75;5106381;28;20231;-72
2023/09/22 00:16:39;;;;;;;;;;;;;;;14.47;100.00;95275.09;5106481;28;19959;-72
2023/09/22 00:19:05;;;;;;;;;;;;;;;14.48;100.00;95263.47;5106377;28;19961;-72
2023/09/22 00:21:32;;;;;;;;;;;;;;;14.50;100.00;95264.00;5087913;28;20219;-72
2023/09/22 00:23:58;;;;;;;;;;;;;;;14.52;100.00;95266.38;5106343;28;19960;-72
2023/09/22 00:26:24;;;;;;;;;;;;;;;14.50;100.00;95261.34;5106328;28;19944;-72
2023/09/22 00:28:50;;;;;;;;;;;;;;;14.49;100.00;95280.09;5106288;28;19957;-73
2023/09/22 00:31:16;;;;;;;;;;;;;;;14.46;100.00;95276.16;5106036;28;20045;-72
2023/09/22 00:33:42;;;;;;;;;;;;;;;14.38;100.00;95277.53;5087498;28;19964;-72
2023/09/22 00:36:08;;;;;;;;;;;;;;;14.31;100.00;95290.19;5106005;28;19993;-74
2023/09/22 00:38:34;;;;;;;;;;;;;;;14.17;100.00;95289.19;5105817;28;19962;-72
2023/09/22 00:41:00;;;;;;;;;;;;;;;14.03;100.00;95296.88;5105446;28;19991;-72
2023/09/22 00:43:25;;;;;;;;;;;;;;;13.96;100.00;95318.25;5105917;28;19957;-72
2023/09/22 00:45:52;;;;;;;;;;;;;;;13.93;100.00;95321.41;5087850;28;19963;-70
2023/09/22 00:48:22;;;;;;;;;;;;;;;13.89;100.00;95330.13;5105903;28;19956;-72
2023/09/22 00:50:53;;;;;;;;;;;;;;;13.88;100.00;95331.97;5105867;28;19960;-72
2023/09/22 00:53:19;;;;;;;;;;;;;;;13.89;100.00;95330.13;5106002;28;19938;-72
2023/09/22 00:55:47;;;;;;;;;;;;;;;13.84;100.00;95315.09;5105703;28;20149;-72
2023/09/22 00:58:13;;;;;;;;;;;;;;;13.77;100.00;95306.66;5105671;28;19950;-72
2023/09/22 01:00:41;;;;;;;;;;;;;;;13.77;100.00;95290.84;5105115;28;19958;-72
2023/09/22 01:03:06;;;;;;;;;;;;;;;13.78;100.00;95290.59;5105661;28;20108;-72
2023/09/22 01:05:33;;;;;;;;;;;;;;;13.77;100.00;95275.03;5105562;28;19993;-72
2023/09/22 01:08:00;;;;;;;;;;;;;;;13.80;100.00;95269.25;5105415;28;20069;-72
2023/09/22 01:10:34;;;;;;;;;;;;;;;13.85;100.00;95276.34;5087095;28;19962;-72
2023/09/22 01:13:00;;;;;;;;;;;;;;;13.89;100.00;95261.59;5105182;28;19955;-72
2023/09/22 01:15:26;;;;;;;;;;;;;;;13.87;100.00;95246.03;5105243;28;20298;-72
2023/09/22 01:17:51;;;;;;;;;;;;;;;13.84;100.00;95248.41;5105317;28;20229;-72
2023/09/22 01:20:17;;;;;;;;;;;;;;;13.83;100.00;95270.56;5104775;28;19936;-70
2023/09/22 01:22:43;;;;;;;;;;;;;;;13.84;100.00;95286.13;5105291;28;19959;-70
2023/09/22 01:25:09;;;;;;;;;;;;;;;13.79;100.00;95292.16;5105456;28;19960;-72
2023/09/22 01:27:35;;;;;;;;;;;;;;;13.74;100.00;95286.91;5105382;28;19955;-71
2023/09/22 01:30:04;;;;;;;;;;;;;;;13.74;100.00;95276.38;5104663;28;19973;-71
2023/09/22 01:32:31;;;;;;;;;;;;;;;13.77;100.00;95277.69;5105260;28;19959;-72
2023/09/22 01:34:58;;;;;;;;;;;;;;;13.75;100.00;95285.88;5104800;28;20126;-71
2023/09/22 01:37:28;;;;;;;;;;;;;;;13.77;100.00;95288.22;5104817;28;19968;-71
2023/09/22 01:39:55;;;;;;;;;;;;;;;13.78;100.00;95277.41;5105199;28;19954;-70
2023/09/22 01:42:21;;;;;;;;;;;;;;;13.79;100.00;95272.94;5105049;28;19955;-69
2023/09/22 01:44:47;;;;;;;;;;;;;;;13.79;100.00;95283.47;5105015;28;19955;-69
2023/09/22 01:47:12;;;;;;;;;;;;;;;13.80;100.00;95269.25;5104895;28;19957;-70
2023/09/22 01:49:39;;;;;;;;;;;;;;;13.79;100.00;95251.84;5104903;28;19953;-69
2023/09/22 01:52:05;;;;;;;;;;;;;;;13.73;100.00;95252.91;5105159;28;19951;-69
2023/09/22 01:54:30;;;;;;;;;;;;;;;13.71;100.00;95242.66;5104992;28;19946;-69
2023/09/22 01:56:56;;;;;;;;;;;;;;;13.71;100.00;95249.75;5104708;28;19965;-69
2023/09/22 01:59:22;;;;;;;;;;;;;;;13.71;100.00;95249.75;5086849;28;20267;-72
2023/09/22 02:01:48;;;;;;;;;;;;;;;13.72;100.00;95248.72;5104850;28;19958;-70
2023/09/22 02:04:14;;;;;;;;;;;;;;;13.71;100.00;95247.13;5104545;28;19958;-70
2023/09/22 02:06:40;;;;;;;;;;;;;;;13.70;100.00;95246.34;5104580;28;19960;-70
2023/09/22 02:09:06;;;;;;;;;;;;;;;13.70;100.00;95266.66;5104864;28;19977;-69
2023/09/22 02:11:31;;;;;;;;;;;;;;;13.65;100.00;95264.00;5104624;28;19955;-70
2023/09/22 02:13:57;;;;;;;;;;;;;;;13.60;100.00;95268.22;5104690;28;19957;-69
2023/09/22 02:16:23;;;;;;;;;;;;;;;13.60;100.00;95283.25;5104547;28;19974;-72
2023/09/22 02:18:49;;;;;;;;;;;;;;;13.58;100.00;95265.06;5104402;28;19945;-73
2023/09/22 02:21:17;;;;;;;;;;;;;;;13.57;100.00;95263.50;5086810;28;20130;-71
2023/09/22 02:23:43;;;;;;;;;;;;;;;13.55;100.00;95262.97;5104591;28;19955;-72
2023/09/22 02:26:09;;;;;;;;;;;;;;;13.54;100.00;95247.44;5106197;28;19955;-72
2023/09/22 02:28:35;;;;;;;;;;;;;;;13.54;100.00;95271.13;5108006;28;20266;-72
2023/09/22 02:31:01;;;;;;;;;;;;;;;13.53;100.00;95275.63;5108271;28;19955;-72
2023/09/22 02:33:29;;;;;;;;;;;;;;;13.52;100.00;95273.22;5090391;28;19958;-72
2023/09/22 02:35:54;;;;;;;;;;;;;;;13.50;100.00;95285.88;5108314;28;19984;-72
2023/09/22 02:38:20;;;;;;;;;;;;;;;13.51;100.00;95298.00;5108764;28;20245;-72
2023/09/22 02:40:46;;;;;;;;;;;;;;;13.51;100.00;95301.41;5108400;28;20239;-72
2023/09/22 02:43:12;;;;;;;;;;;;;;;13.49;100.00;95293.00;5108302;28;19958;-73
2023/09/22 02:45:39;;;;;;;;;;;;;;;13.48;100.00;95283.53;5108301;28;20245;-72
2023/09/22 02:48:06;;;;;;;;;;;;;;;13.48;100.00;95301.97;5108212;28;19938;-72
2023/09/22 02:50:32;;;;;;;;;;;;;;;13.42;100.00;95286.41;5107751;28;19959;-72
2023/09/22 02:52:57;;;;;;;;;;;;;;;13.38;100.00;95273.78;5108196;28;19996;-70
2023/09/22 02:55:23;;;;;;;;;;;;;;;13.35;100.00;95255.06;5089450;28;19964;-72
2023/09/22 02:57:50;;;;;;;;;;;;;;;13.33;100.00;95244.84;5107932;28;19954;-73
2023/09/22 03:00:20;;;;;;;;;;;;;;;13.34;100.00;95277.22;5107686;28;19960;-72
2023/09/22 03:02:47;;;;;;;;;;;;;;;13.35;100.00;95274.28;5108182;28;19955;-72
2023/09/22 03:05:16;;;;;;;;;;;;;;;13.36;100.00;95259.31;5107967;28;19962;-72
2023/09/22 03:07:46;;;;;;;;;;;;;;;13.37;100.00;95287.97;5107879;28;19954;-72
2023/09/22 03:10:12;;;;;;;;;;;;;;;13.35;100.00;95300.63;5107773;28;20217;-73
2023/09/22 03:12:38;;;;;;;;;;;;;;;13.32;100.00;95305.66;5107854;28;19987;-69
2023/09/22 03:15:05;;;;;;;;;;;;;;;13.32;100.00;95285.38;5107731;28;19955;-72
2023/09/22 03:17:31;;;;;;;;;;;;;;;13.26;100.00;95291.66;5107354;28;19963;-72
2023/09/22 03:19:58;;;;;;;;;;;;;;;13.26;100.00;95304.03;5107211;28;19962;-72
2023/09/22 03:22:26;;;;;;;;;;;;;;;13.24;100.00;95295.59;5107203;28;19956;-72
2023/09/22 03:24:52;;;;;;;;;;;;;;;13.22;100.00;95295.06;5107433;28;19974;-72
2023/09/22 03:27:18;;;;;;;;;;;;;;;13.24;100.00;95308.78;5106977;28;20239;-72
2023/09/22 03:29:44;;;;;;;;;;;;;;;13.23;100.00;95325.59;5107366;28;19984;-72
2023/09/22 03:32:10;;;;;;;;;;;;;;;13.21;100.00;95339.03;5107366;28;19955;-72
2023/09/22 03:34:35;;;;;;;;;;;;;;;13.19;100.00;95352.47;5107214;28;19958;-72
2023/09/22 03:37:08;;;;;;;;;;;;;;;13.14;100.00;95355.06;5106877;28;19961;-72
2023/09/22 03:39:33;;;;;;;;;;;;;;;13.10;100.00;95358.50;5107387;28;20252;-72
2023/09/22 03:41:59;;;;;;;;;;;;;;;13.09;100.00;95351.66;5089061;28;19953;-72
2023/09/22 03:44:25;;;;;;;;;;;;;;;13.11;100.00;95333.75;5107410;28;19944;-72
2023/09/22 03:46:51;;;;;;;;;;;;;;;13.15;100.00;95324.28;5107156;28;19952;-72
2023/09/22 03:49:17;;;;;;;;;;;;;;;13.20;100.00;95311.91;5106725;28;19972;-72
2023/09/22 03:51:43;;;;;;;;;;;;;;;13.23;100.00;95297.47;5106827;28;20282;-73
2023/09/22 03:54:09;;;;;;;;;;;;;;;13.26;100.00;95302.19;5107026;28;20000;-73
2023/09/22 03:56:37;;;;;;;;;;;;;;;13.28;100.00;95286.13;5106332;28;19985;-73
2023/09/22 03:59:04;;;;;;;;;;;;;;;13.31;100.00;95288.25;5106814;28;19950;-73
2023/09/22 04:01:31;;;;;;;;;;;;;;;13.27;100.00;95258.22;5106689;28;19961;-73
2023/09/22 04:03:56;;;;;;;;;;;;;;;13.23;100.00;95292.19;5106694;28;19954;-73
2023/09/22 04:06:22;;;;;;;;;;;;;;;13.22;100.00;95298.50;5106692;28;20029;-72
2023/09/22 04:08:49;;;;;;;;;;;;;;;13.21;100.00;95302.19;5088576;28;19954;-73
2023/09/22 04:11:14;;;;;;;;;;;;;;;13.23;100.00;95299.28;5106724;28;19963;-73
2023/09/22 04:13:40;;;;;;;;;;;;;;;13.25;100.00;95321.69;5106922;28;20147;-72
2023/09/22 04:16:06;;;;;;;;;;;;;;;13.22;100.00;95308.25;5106637;28;19987;-72
2023/09/22 04:18:32;;;;;;;;;;;;;;;13.17;100.00;95301.91;5106491;28;19960;-72
2023/09/22 04:21:01;;;;;;;;;;;;;;;13.18;100.00;95294.81;5106670;28;19958;-72
2023/09/22 04:23:27;;;;;;;;;;;;;;;13.18;100.00;95300.06;5106136;28;19950;-73
2023/09/22 04:25:54;;;;;;;;;;;;;;;13.20;100.00;95301.38;5106155;28;19955;-72
2023/09/22 04:28:23;;;;;;;;;;;;;;;13.24;100.00;95303.50;5106477;28;19953;-72
2023/09/22 04:30:49;;;;;;;;;;;;;;;13.25;100.00;95297.16;5088131;28;19965;-73
2023/09/22 04:33:15;;;;;;;;;;;;;;;13.28;100.00;95305.34;5106331;28;19964;-72
2023/09/22 04:35:41;;;;;;;;;;;;;;;13.27;100.00;95285.34;5106074;28;19959;-73
2023/09/22 04:38:08;;;;;;;;;;;;;;;13.30;100.00;95284.84;5106124;28;20267;-72
2023/09/22 04:40:36;;;;;;;;;;;;;;;13.32;100.00;95279.31;5087785;28;20151;-73
2023/09/22 04:43:03;;;;;;;;;;;;;;;13.34;100.00;95272.72;5106020;28;20145;-69
2023/09/22 04:45:29;;;;;;;;;;;;;;;13.35;100.00;95284.03;5087843;28;19957;-73
2023/09/22 04:47:55;;;;;;;;;;;;;;;13.37;100.00;95289.84;5105064;28;19964;-73
2023/09/22 04:50:22;;;;;;;;;;;;;;;13.37;100.00;95300.38;5105868;28;19949;-72
2023/09/22 04:52:49;;;;;;;;;;;;;;;13.37;100.00;95306.41;5105625;28;19950;-72
2023/09/22 04:55:19;;;;;;;;;;;;;;;13.37;100.00;95301.16;5105262;28;19963;-73
2023/09/22 04:57:45;;;;;;;;;;;;;;;13.37;100.00;95300.38;5105533;28;19963;-72
2023/09/22 05:00:20;;;;;;;;;;;;;;;13.36;100.00;95302.22;5105834;28;19966;-73
2023/09/22 05:02:46;;;;;;;;;;;;;;;13.33;100.00;95297.50;5105762;28;20122;-71
2023/09/22 05:05:12;;;;;;;;;;;;;;;13.34;100.00;95311.44;5105700;28;19965;-70
2023/09/22 05:07:38;;;;;;;;;;;;;;;13.33;100.00;95320.38;5105598;28;19945;-70
2023/09/22 05:10:05;;;;;;;;;;;;;;;13.36;100.00;95322.50;5105579;28;19977;-69
2023/09/22 05:12:31;;;;;;;;;;;;;;;13.32;100.00;95330.13;5105758;28;20104;-69
2023/09/22 05:14:58;;;;;;;;;;;;;;;13.31;100.00;95344.34;5105548;28;19959;-69
2023/09/22 05:17:27;;;;;;;;;;;;;;;13.27;100.00;95337.19;5105032;28;19959;-70
2023/09/22 05:19:54;;;;;;;;;;;;;;;13.26;100.00;95348.78;5105193;28;19964;-73
2023/09/22 05:22:21;;;;;;;;;;;;;;;13.24;100.00;95340.34;5105145;28;19957;-69
2023/09/22 05:24:47;;;;;;;;;;;;;;;13.24;100.00;95348.25;5086980;28;19955;-72
2023/09/22 05:27:14;;;;;;;;;;;;;;;13.23;100.00;95355.38;5105251;28;19954;-73
2023/09/22 05:29:41;;;;;;;;;;;;;;;13.25;100.00;95366.44;5105199;28;19951;-72
2023/09/22 05:32:08;;;;;;;;;;;;;;;13.27;100.00;95379.31;5105273;28;19954;-72
2023/09/22 05:34:34;;;;;;;;;;;;;;;13.30;100.00;95378.84;5105620;28;19958;-73
2023/09/22 05:37:03;;;;;;;;;;;;;;;13.32;100.00;95374.09;5105099;28;19992;-72
2023/09/22 05:39:29;;;;;;;;;;;;;;;13.26;100.00;95373.25;5105298;28;19959;-69
2023/09/22 05:41:54;;;;;;;;;;;;;;;13.24;100.00;95380.63;5104771;28;19949;-72
2023/09/22 05:44:20;;;;;;;;;;;;;;;13.27;100.00;95393.28;5104666;28;19960;-71
2023/09/22 05:46:49;;;;;;;;;;;;;;;13.30;100.00;95397.25;5104746;28;19962;-72
2023/09/22 05:49:15;;;;;;;;;;;;;;;13.32;100.00;95403.84;5104978;28;19953;-73
2023/09/22 05:51:41;;;;;;;;;;;;;;;13.34;100.00;95395.69;5104826;28;19949;-72
2023/09/22 05:54:07;;;;;;;;;;;;;;;13.35;100.00;95392.78;5104353;28;20026;-72
2023/09/22 05:56:34;;;;;;;;;;;;;;;13.37;100.00;95401.22;5104814;28;19954;-69
2023/09/22 05:59:01;;;;;;;;;;;;;;;13.39;100.00;95408.84;5104901;28;19985;-69
2023/09/22 06:01:37;;;;;;;;;;;;;;;13.38;100.00;95409.94;5086616;28;19951;-71
2023/09/22 06:04:06;;;;;;;;;;;;;;;13.34;100.00;95412.28;5104863;28;19964;-71
2023/09/22 06:06:32;;;;;;;;;;;;;;;13.31;100.00;95412.81;5087031;28;19951;-71
2023/09/22 06:08:58;;;;;;;;;;;;;;;13.27;100.00;95408.28;5086311;28;19964;-71
2023/09/22 06:11:25;;;;;;;;;;;;;;;13.25;100.00;95400.66;5104389;28;20217;-71
2023/09/22 06:13:51;;;;;;;;;;;;;;;13.27;100.00;95400.38;5086299;28;20137;-71
2023/09/22 06:16:18;;;;;;;;;;;;;;;13.29;100.00;95412.28;5104480;28;19998;-72
2023/09/22 06:18:44;;;;;;;;;;;;;;;13.29;100.00;95424.63;5104733;28;20124;-69
2023/09/22 06:21:11;;;;;;;;;;;;;;;13.25;100.00;95419.09;5104745;28;19956;-69
2023/09/22 06:23:38;;;;;;;;;;;;;;;13.28;100.00;95426.44;5104242;28;19954;-69
2023/09/22 06:26:12;;;;;;;;;;;;;;;13.30;100.00;95437.53;5104608;28;19974;-70
2023/09/22 06:28:38;;;;;;;;;;;;;;;13.30;100.00;95424.38;5104620;28;19994;-69
2023/09/22 06:31:04;;;;;;;;;;;;;;;13.32;100.00;95430.19;5104537;28;19978;-69
2023/09/22 06:33:30;;;;;;;;;;;;;;;13.33;100.00;95436.22;5104555;28;20273;-72
2023/09/22 06:35:57;;;;;;;;;;;;;;;13.34;100.00;95432.56;5104203;28;19960;-72
2023/09/22 06:38:23;;;;;;;;;;;;;;;13.34;100.00;95435.19;5086029;28;19956;-72
2023/09/22 06:40:50;;;;;;;;;;;;;;;13.34;100.00;95427.28;5104219;28;19966;-72
2023/09/22 06:43:16;;;;;;;;;;;;;;;13.36;100.00;95417.28;5104228;28;19950;-73
2023/09/22 06:45:42;;;;;;;;;;;;;;;13.37;100.00;95405.69;5104265;28;20135;-72
2023/09/22 06:48:09;;;;;;;;;;;;;;;13.40;100.00;95398.06;5104570;28;20130;-72
2023/09/22 06:50:35;;;;;;;;;;;;;;;13.44;100.00;95392.28;5104319;28;19951;-72
2023/09/22 06:53:02;;;;;;;;;;;;;;;13.45;100.00;95386.75;5103824;28;19949;-69
2023/09/22 06:55:30;;;;;;;;;;;;;;;13.49;100.00;95385.19;5086090;28;19961;-69
2023/09/22 06:57:57;;;;;;;;;;;;;;;13.51;100.00;95384.91;5103715;28;19960;-70
2023/09/22 07:00:26;;;;;;;;;;;;;;;13.53;100.00;95395.97;5103954;28;19961;-69
2023/09/22 07:02:52;;;;;;;;;;;;;;;13.53;100.00;95388.88;5104348;28;19953;-69
2023/09/22 07:05:20;;;;;;;;;;;;;;;13.56;100.00;95380.44;5103897;28;19952;-69
2023/09/22 07:07:47;;;;;;;;;;;;;;;13.58;100.00;95367.78;5104079;28;19956;-69
2023/09/22 07:10:13;;;;;;;;;;;;;;;13.62;100.00;95375.19;5104130;28;19958;-71
2023/09/22 07:12:39;;;;;;;;;;;;;;;13.66;100.00;95394.69;5106269;28;20221;-72
2023/09/22 07:15:06;;;;;;;;;;;;;;;13.65;100.00;95398.34;5107660;28;20242;-69
2023/09/22 07:17:32;;;;;;;;;;;;;;;13.60;100.00;95407.03;5107609;28;19962;-69
2023/09/22 07:19:58;;;;;;;;;;;;;;;13.59;100.00;95408.91;5107773;28;19953;-69
2023/09/22 07:22:24;;;;;;;;;;;;;;;13.60;100.00;95399.13;5107127;28;19951;-69
2023/09/22 07:24:53;;;;;;;;;;;;;;;13.61;100.00;95392.84;5107622;28;19968;-69
2023/09/22 07:27:19;;;;;;;;;;;;;;;13.64;100.00;95396.78;5107370;28;19968;-69
2023/09/22 07:29:45;;;;;;;;;;;;;;;13.68;100.00;95405.75;5107406;28;19948;-72
2023/09/22 07:32:11;;;;;;;;;;;;;;;13.70;100.00;95414.19;5107114;28;19990;-71
2023/09/22 07:34:37;;;;;;;;;;;;;;;13.70;100.00;95432.63;5107037;28;19959;-71
2023/09/22 07:37:03;;;;;;;;;;;;;;;13.70;100.00;95443.16;5107377;28;19979;-71
2023/09/22 07:39:29;;;;;;;;;;;;;;;13.66;100.00;95428.91;5107058;28;19977;-71
2023/09/22 07:41:55;;;;;;;;;;;;;;;13.62;100.00;95427.88;5107476;28;20234;-71
2023/09/22 07:44:24;;;;;;;;;;;;;;;13.63;100.00;95424.97;5107096;28;19958;-72
2023/09/22 07:46:50;;;;;;;;;;;;;;;13.65;100.00;95417.59;5107176;28;19956;-72
2023/09/22 07:49:16;;;;;;;;;;;;;;;13.66;100.00;95440.25;5107258;28;19999;-74
2023/09/22 07:51:42;;;;;;;;;;;;;;;13.65;100.00;95436.03;5106652;28;20023;-71
2023/09/22 07:54:09;;;;;;;;;;;;;;;13.66;100.00;95448.16;5088686;28;19929;-72
2023/09/22 07:56:35;;;;;;;;;;;;;;;13.67;100.00;95448.94;5106831;28;19966;-71
2023/09/22 07:59:03;;;;;;;;;;;;;;;13.68;100.00;95443.41;5107176;28;19959;-71
2023/09/22 08:01:29;;;;;;;;;;;;;;;13.75;100.00;95435.25;5106910;28;19956;-71
2023/09/22 08:03:55;;;;;;;;;;;;;;;13.83;100.00;95444.47;5106567;28;20131;-71
2023/09/22 08:06:21;;;;;;;;;;;;;;;13.93;100.00;95447.91;5107009;28;19955;-72
2023/09/22 08:08:50;;;;;;;;;;;;;;;14.03;100.00;95460.31;5106574;28;19952;-72
2023/09/22 08:11:17;;;;;;;;;;;;;;;14.09;100.00;95464.53;5105968;28;20191;-73
2023/09/22 08:13:46;;;;;;;;;;;;;;;14.13;100.00;95465.59;5088405;28;20157;-72
2023/09/22 08:16:13;;;;;;;;;;;;;;;14.14;100.00;95469.78;5088230;28;19963;-72
2023/09/22 08:18:40;;;;;;;;;;;;;;;14.18;100.00;95460.28;5106499;28;19965;-72
2023/09/22 08:21:09;;;;;;;;;;;;;;;14.21;100.00;95454.50;5105972;28;19954;-73
2023/09/22 08:23:35;;;;;;;;;;;;;;;14.32;100.00;95460.56;5105297;28;19970;-73
2023/09/22 08:26:05;;;;;;;;;;;;;;;14.40;100.00;95460.03;5088502;28;19968;-71
2023/09/22 08:28:32;;;;;;;;;;;;;;;14.43;100.00;95455.28;5106004;28;19960;-72
2023/09/22 08:30:58;;;;;;;;;;;;;;;14.39;100.00;95452.38;5106347;28;19956;-72
2023/09/22 08:33:24;;;;;;;;;;;;;;;14.38;100.00;95448.13;5106259;28;19960;-72
2023/09/22 08:35:51;;;;;;;;;;;;;;;14.36;100.00;95447.63;5105978;28;19997;-72
2023/09/22 08:38:17;;;;;;;;;;;;;;;14.38;100.00;95443.69;5105958;28;20253;-72
2023/09/22 08:40:46;;;;;;;;;;;;;;;14.43;100.00;95444.72;5106029;28;19949;-72
2023/09/22 08:43:12;;;;;;;;;;;;;;;14.44;100.00;95456.84;5106137;28;19961;-72
2023/09/22 08:45:38;;;;;;;;;;;;;;;14.40;100.00;95465.31;5106168;28;19948;-71
2023/09/22 08:48:04;;;;;;;;;;;;;;;14.40;100.00;95461.84;5105972;28;19953;-72
2023/09/22 08:50:30;;;;;;;;;;;;;;;14.38;100.00;95470.06;5105384;28;20194;-71
2023/09/22 08:52:57;;;;;;;;;;;;;;;14.36;100.00;95474.81;5105934;28;19958;-71
2023/09/22 08:55:23;;;;;;;;;;;;;;;14.34;100.00;95466.38;5106088;28;19960;-71
2023/09/22 08:57:49;;;;;;;;;;;;;;;14.32;100.00;95465.84;5105998;28;19969;-71
2023/09/22 09:00:19;;;;;;;;;;;;;;;14.34;100.00;95468.19;5105232;28;19955;-72
2023/09/22 09:02:46;;;;;;;;;;;;;;;14.37;100.00;95467.69;5105820;28;20248;-69
2023/09/22 09:05:22;;;;;;;;;;;;;;;14.40;100.00;95467.13;5105839;28;19955;-70
2023/09/22 09:07:49;;;;;;;;;;;;;;;14.44;100.00;95478.72;5106147;28;20110;-69
2023/09/22 09:10:28;;;;;;;;;;;;;;;14.48;100.00;95466.59;5105089;28;19952;-70
2023/09/22 09:12:54;;;;;;;;;;;;;;;14.54;100.00;95467.38;5105542;28;19958;-70
2023/09/22 09:15:25;;;;;;;;;;;;;;;14.59;100.00;95475.31;5105542;28;20222;-70
2023/09/22 09:18:01;;;;;;;;;;;;;;;14.59;100.00;95481.41;5105336;28;19960;-70
2023/09/22 09:20:27;;;;;;;;;;;;;;;14.57;100.00;95487.97;5105473;28;19959;-73
2023/09/22 09:22:53;;;;;;;;;;;;;;;14.55;100.00;95488.25;5105174;28;19959;-72
2023/09/22 09:25:19;;;;;;;;;;;;;;;14.58;100.00;95490.34;5105214;28;19969;-72
2023/09/22 09:27:45;;;;;;;;;;;;;;;14.65;100.00;95489.28;5105147;28;20135;-72
2023/09/22 09:30:13;;;;;;;;;;;;;;;14.73;100.00;95497.44;5105177;28;19952;-72
2023/09/22 09:32:40;;;;;;;;;;;;;;;14.78;100.00;95492.19;5105154;28;19955;-71
2023/09/22 09:35:06;;;;;;;;;;;;;;;14.81;100.00;95491.63;5104806;28;20244;-72
2023/09/22 09:37:32;;;;;;;;;;;;;;;14.85;100.00;95499.81;5105073;28;19955;-72
2023/09/22 09:39:58;;;;;;;;;;;;;;;14.86;100.00;95496.09;5104657;28;19945;-72
2023/09/22 09:42:25;;;;;;;;;;;;;;;14.80;100.00;95497.97;5104924;28;19960;-72
2023/09/22 09:44:54;;;;;;;;;;;;;;;14.76;100.00;95510.13;5105009;28;20238;-72
2023/09/22 09:47:34;;;;;;;;;;;;;;;14.73;100.00;95507.22;5104574;28;19958;-72
2023/09/22 09:50:04;;;;;;;;;;;;;;;14.70;100.00;95505.09;5086956;28;19958;-72
2023/09/22 09:52:37;;;;;;;;;;;;;;;14.69;100.00;95498.25;5104770;28;19982;-72
2023/09/22 09:55:03;;;;;;;;;;;;;;;14.69;100.00;95499.03;5104909;28;19948;-72
2023/09/22 09:57:30;;;;;;;;;;;;;;;14.70;100.00;95489.28;5104812;28;19961;-72
2023/09/22 09:59:57;;;;;;;;;;;;;;;14.74;100.00;95487.69;5104939;28;19952;-73
2023/09/22 10:02:24;;;;;;;;;;;;;;;14.82;100.00;95479.22;5104798;28;19956;-72
2023/09/22 10:04:50;;;;;;;;;;;;;;;14.91;100.00;95469.69;5104587;28;19947;-72
2023/09/22 10:07:16;;;;;;;;;;;;;;;14.97;100.00;95475.75;5104725;28;19953;-73
2023/09/22 10:09:42;;;;;;;;;;;;;;;15.01;100.00;95471.50;5104358;28;19993;-72
2023/09/22 10:12:08;;;;;;;;;;;;;;;15.16;100.00;95473.28;5104408;28;19959;-72
2023/09/22 10:14:46;;;;;;;;;;;;;;;15.32;100.00;95460.81;5086222;28;19962;-71
2023/09/22 10:17:21;;;;;;;;;;;;;;;15.50;100.00;95468.13;5104876;28;19960;-71
2023/09/22 10:19:47;;;;;;;;;;;;;;;15.62;100.00;95462.50;5104535;28;19959;-70
2023/09/22 10:22:13;;;;;;;;;;;;;;;15.70;100.00;95456.63;5104636;28;19954;-69
2023/09/22 10:24:42;;;;;;;;;;;;;;;15.71;100.00;95483.88;5104652;28;20008;-69
2023/09/22 10:27:09;;;;;;;;;;;;;;;15.73;100.00;95479.13;5104576;28;19956;-70
2023/09/22 10:29:35;;;;;;;;;;;;;;;15.75;100.00;95483.06;5104617;28;19963;-69
2023/09/22 10:32:19;;;;;;;;;;;;;;;15.92;100.00;95484.56;5104809;28;20233;-70
2023/09/22 10:34:52;;;;;;;;;;;;;;;16.08;100.00;95478.06;5104545;28;20153;-69
2023/09/22 10:37:19;;;;;;;;;;;;;;;16.20;100.00;95470.56;5086235;28;19957;-73
2023/09/22 10:39:55;;;;;;;;;;;;;;;16.19;100.00;95476.13;5104333;28;19962;-72
2023/09/22 10:42:22;;;;;;;;;;;;;;;16.14;100.00;95476.97;5104534;28;19960;-73
2023/09/22 10:45:01;;;;;;;;;;;;;;;16.13;100.00;95488.63;5104508;28;19957;-72
2023/09/22 10:47:46;;;;;;;;;;;;;;;16.10;100.00;95475.94;5106056;28;19940;-72
2023/09/22 10:50:12;;;;;;;;;;;;;;;16.07;100.00;95465.94;5107916;28;19961;-72
2023/09/22 10:52:38;;;;;;;;;;;;;;;16.15;100.00;95451.34;5108284;28;20007;-73
2023/09/22 10:55:05;;;;;;;;;;;;;;;16.39;100.00;95451.38;5107984;28;20225;-70
2023/09/22 10:57:33;;;;;;;;;;;;;;;16.59;100.00;95439.81;5089906;28;20280;-69
2023/09/22 11:00:00;;;;;;;;;;;;;;;16.79;100.00;95391.91;5107808;28;19967;-69
2023/09/22 11:02:29;;;;;;;;;;;;;;;16.91;100.00;95415.38;5089596;28;19953;-69
2023/09/22 11:04:55;;;;;;;;;;;;;;;17.15;100.00;95449.00;5107955;28;19978;-69
2023/09/22 11:07:33;;;;;;;;;;;;;;;17.43;100.00;95434.09;5107502;28;20246;-70
2023/09/22 11:10:00;;;;;;;;;;;;;;;17.65;100.00;95413.06;5107503;28;20132;-74
2023/09/22 11:12:29;;;;;;;;;;;;;;;17.59;100.00;95435.41;5107932;28;19957;-71
2023/09/22 11:14:55;;;;;;;;;;;;;;;17.52;100.00;95410.38;5089768;28;19960;-69
2023/09/22 11:17:21;;;;;;;;;;;;;;;17.57;100.00;95437.56;5107794;28;19953;-70
2023/09/22 11:19:54;;;;;;;;;;;;;;;17.58;100.00;95428.56;5107670;28;20239;-69
2023/09/22 11:22:20;;;;;;;;;;;;;;;17.43;100.00;95431.44;5107655;28;19954;-70
2023/09/22 11:24:46;;;;;;;;;;;;;;;17.17;100.00;95455.59;5107475;28;20144;-69
2023/09/22 11:27:12;;;;;;;;;;;;;;;16.96;100.00;95460.34;5107465;28;19952;-69
2023/09/22 11:29:41;;;;;;;;;;;;;;;16.78;100.00;95451.25;5107484;28;20259;-73
2023/09/22 11:32:08;;;;;;;;;;;;;;;16.61;100.00;95461.50;5107474;28;19951;-73
2023/09/22 11:34:46;;;;;;;;;;;;;;;16.57;100.00;95465.78;5107328;28;20234;-74
2023/09/22 11:37:12;;;;;;;;;;;;;;;16.56;100.00;95440.34;5107675;28;19955;-73
2023/09/22 11:39:38;;;;;;;;;;;;;;;16.66;100.00;95431.53;5107251;28;19955;-74
2023/09/22 11:42:04;;;;;;;;;;;;;;;16.76;100.00;95426.13;5107518;28;19957;-73
2023/09/22 11:44:30;;;;;;;;;;;;;;;16.82;100.00;95427.69;5106940;28;19955;-74
2023/09/22 11:46:55;;;;;;;;;;;;;;;16.93;100.00;95421.19;5107382;28;19958;-73
2023/09/22 11:49:21;;;;;;;;;;;;;;;17.07;100.00;95415.97;5107174;28;20144;-75
2023/09/22 11:51:50;;;;;;;;;;;;;;;17.20;100.00;95402.03;5106943;28;19957;-76
2023/09/22 11:54:19;;;;;;;;;;;;;;;17.17;99.97;95393.88;5106941;28;19960;-76
2023/09/22 11:56:46;;;;;;;;;;;;;;;17.11;100.00;95437.41;5106605;28;19951;-75
2023/09/22 11:59:19;;;;;;;;;;;;;;;16.96;100.00;95393.34;5106659;28;20151;-76
2023/09/22 12:01:46;;;;;;;;;;;;;;;16.91;100.00;95411.97;5106962;28;20117;-76
2023/09/22 12:04:12;;;;;;;;;;;;;;;17.04;94.45;95360.94;5106936;28;19978;-76
2023/09/22 12:06:42;;;;;;;;;;;;;;;17.35;100.00;95398.41;5105693;28;20255;-73
2023/09/22 12:09:08;;;;;;;;;;;;;;;17.56;100.00;95416.66;5105720;28;19963;-73
2023/09/22 12:11:35;;;;;;;;;;;;;;;17.68;88.73;95348.09;5105664;28;19956;-73
2023/09/22 12:14:01;;;;;;;;;;;;;;;17.77;84.03;95305.78;5105553;28;19958;-73
2023/09/22 12:16:27;;;;;;;;;;;;;;;17.83;85.79;95339.13;5105340;28;19973;-73
2023/09/22 12:18:53;;;;;;;;;;;;;;;17.75;80.40;95379.53;5105263;28;19963;-73
2023/09/22 12:21:19;;;;;;;;;;;;;;;17.86;83.61;95399.53;5105391;28;20241;-74
2023/09/22 12:23:45;;;;;;;;;;;;;;;17.95;83.55;95413.69;5105388;28;19949;-73
2023/09/22 12:26:11;;;;;;;;;;;;;;;17.95;91.26;95436.78;5105042;28;19956;-72
2023/09/22 12:28:37;;;;;;;;;;;;;;;17.85;82.78;95408.56;5105294;28;19955;-72
2023/09/22 12:31:03;;;;;;;;;;;;;;;17.76;85.09;95419.00;5104816;28;19967;-72
2023/09/22 12:33:29;;;;;;;;;;;;;;;17.67;84.47;95414.66;5105175;28;19954;-72
2023/09/22 12:35:55;;;;;;;;;;;;;;;17.56;82.40;95406.06;5104732;28;19964;-71
2023/09/22 12:38:22;;;;;;;;;;;;;;;17.52;83.87;95415.66;5086845;28;19966;-72